Cobb, GA (31735)

3:04 PM EDT on June 03, 2015 (GMT -0400)
Lyle Farms | | Change Station
CLOSE
Current Station
Personal Weather Station
Location: Cobb, GA
Elevation: 285 ft
Nearby Weather Stations

Elev 285 ft 31.98 °N, 83.96 °W | Updated 10 minutes ago

Overcast
Overcast
79.4 °F
Feels Like 83 °F
N
1.0
Wind Variable Wind from West
Gusts 4.0 mph

Today
High -- | Low -- °F
--% Chance of Precip.
Yesterday
High -- | Low -- °F
Precip. -- in
6:30 AM 8:37 PM
Full, 99% visible
Pressure 29.95 in
Visibility 10.0 miles
Clouds Scattered Clouds 3200 ft
Scattered Clouds 4800 ft
Mostly Cloudy 8000 ft
Heat Index 83 °F
Dew Point 72 °F
Humidity 78%
Rainfall 0.00 in
Snow Depth Not available.
UV 7 out of 12
Pollen 4.50 out of 12
Air Quality Not available.
Flu Activity Sporadic
METAR KCKF 031855Z AUTO 05005KT 10SM -RA SCT032 SCT048 BKN080 24/22 A2995 RMK AO2 LTG DSNT NE AND E T02390215

More Conditions Fewer Conditions

Pressure 29.95 in
Visibility 10.0 miles
Clouds Scattered Clouds 3200 ft
Scattered Clouds 4800 ft
Mostly Cloudy 8000 ft
Heat Index 83 °F
Dew Point 72 °F
Humidity 78%
Rainfall 0.00 in
Snow Depth Not available.
UV 7 out of 12
Pollen 4.50 out of 12
Air Quality Not available.
Flu Activity Sporadic
METAR KCKF 031855Z AUTO 05005KT 10SM -RA SCT032 SCT048 BKN080 24/22 A2995 RMK AO2 LTG DSNT NE AND E T02390215

More Conditions Fewer Conditions

10-Day Weather Forecast

×

Almanac

Astronomy

Jun. 03, 2015 Rise Set
Actual Time
Civil Twilight
Nautical Twilight
Astronomical Twilight
Moon
Length of Visible Light
Length of Day
Tomorrow will be .
, % of the Moon is Illuminated

Today's Extremes

State Highs State Lows

Community

WunderPhotos

Upload Photos

1,826,270 photos uploaded!

WunderBlogs® & News

Nearby

Air Quality

  Air Quality AQ Index Pollutant
Not available.

Snow Depth

Station Depth Elevation

Earthquake Activity

City Distance Mag. Time & Date
Minimum magnitude displayed is 2.5.

Coastal Water Temperatures

Place Temperature

Stations

Nearby Weather Stations

Station Location Temp. Windchill Dew Point Humidity Wind Precip. Elev Updated Type